sensor_id;sensor_type;location;lat;lon;timestamp;pressure;altitude;pressure_sealevel;temperature;humidity
29461;BME280;16428;47.836;35.106;2023-02-11T00:02:22;102881.16;;;-3.80;100.00
29461;BME280;16428;47.836;35.106;2023-02-11T00:04:52;102874.94;;;-3.76;100.00
29461;BME280;16428;47.836;35.106;2023-02-11T00:07:21;102866.84;;;-3.65;100.00
29461;BME280;16428;47.836;35.106;2023-02-11T00:09:52;102858.91;;;-3.64;100.00
29461;BME280;16428;47.836;35.106;2023-02-11T00:12:22;102859.59;;;-3.54;100.00
29461;BME280;16428;47.836;35.106;2023-02-11T00:14:52;102858.50;;;-3.45;100.00
29461;BME280;16428;47.836;35.106;2023-02-11T00:17:24;102859.59;;;-3.54;100.00
29461;BME280;16428;47.836;35.106;2023-02-11T00:19:54;102858.44;;;-3.42;100.00
29461;BME280;16428;47.836;35.106;2023-02-11T00:22:23;102856.03;;;-3.51;100.00
29461;BME280;16428;47.836;35.106;2023-02-11T00:24:53;102856.31;;;-3.65;100.00
29461;BME280;16428;47.836;35.106;2023-02-11T00:27:24;102850.22;;;-3.66;100.00
29461;BME280;16428;47.836;35.106;2023-02-11T00:29:53;102840.22;;;-3.50;100.00
29461;BME280;16428;47.836;35.106;2023-02-11T00:32:24;102836.16;;;-3.63;100.00
29461;BME280;16428;47.836;35.106;2023-02-11T00:34:54;102831.00;;;-3.68;100.00
29461;BME280;16428;47.836;35.106;2023-02-11T00:37:23;102828.81;;;-3.49;100.00
29461;BME280;16428;47.836;35.106;2023-02-11T00:39:53;102836.19;;;-3.65;100.00
29461;BME280;16428;47.836;35.106;2023-02-11T00:42:22;102840.50;;;-3.62;100.00
29461;BME280;16428;47.836;35.106;2023-02-11T00:44:51;102836.44;;;-3.77;100.00
29461;BME280;16428;47.836;35.106;2023-02-11T00:47:22;102834.53;;;-3.69;100.00
29461;BME280;16428;47.836;35.106;2023-02-11T00:49:51;102832.94;;;-3.76;100.00
29461;BME280;16428;47.836;35.106;2023-02-11T00:52:24;102830.31;;;-3.76;100.00
29461;BME280;16428;47.836;35.106;2023-02-11T00:54:54;102822.63;;;-3.85;100.00
29461;BME280;16428;47.836;35.106;2023-02-11T00:57:26;102827.50;;;-3.67;100.00
29461;BME280;16428;47.836;35.106;2023-02-11T00:59:54;102829.41;;;-3.75;100.00
29461;BME280;16428;47.836;35.106;2023-02-11T01:02:23;102831.91;;;-3.69;100.00
29461;BME280;16428;47.836;35.106;2023-02-11T01:04:52;102822.38;;;-3.73;100.00
29461;BME280;16428;47.836;35.106;2023-02-11T01:07:22;102822.25;;;-3.67;100.00
29461;BME280;16428;47.836;35.106;2023-02-11T01:09:51;102813.19;;;-3.53;100.00
29461;BME280;16428;47.836;35.106;2023-02-11T01:12:21;102814.38;;;-3.68;100.00
29461;BME280;16428;47.836;35.106;2023-02-11T01:14:51;102808.19;;;-3.66;100.00
29461;BME280;16428;47.836;35.106;2023-02-11T01:17:20;102804.06;;;-3.77;100.00
29461;BME280;16428;47.836;35.106;2023-02-11T01:19:49;102803.47;;;-3.90;100.00
29461;BME280;16428;47.836;35.106;2023-02-11T01:22:19;102803.44;;;-3.87;100.00
29461;BME280;16428;47.836;35.106;2023-02-11T01:24:48;102795.91;;;-4.04;100.00
29461;BME280;16428;47.836;35.106;2023-02-11T01:27:18;102803.75;;;-4.02;100.00
29461;BME280;16428;47.836;35.106;2023-02-11T01:29:47;102816.03;;;-4.04;100.00
29461;BME280;16428;47.836;35.106;2023-02-11T01:32:16;102814.16;;;-3.98;100.00
29461;BME280;16428;47.836;35.106;2023-02-11T01:34:47;102813.25;;;-3.97;100.00
29461;BME280;16428;47.836;35.106;2023-02-11T01:37:18;102812.63;;;-4.09;100.00
29461;BME280;16428;47.836;35.106;2023-02-11T01:39:51;102808.84;;;-3.96;100.00
29461;BME280;16428;47.836;35.106;2023-02-11T01:42:22;102810.47;;;-3.89;100.00
29461;BME280;16428;47.836;35.106;2023-02-11T01:44:54;102800.75;;;-3.84;100.00
29461;BME280;16428;47.836;35.106;2023-02-11T01:47:28;102800.25;;;-4.01;100.00
29461;BME280;16428;47.836;35.106;2023-02-11T01:49:59;102803.06;;;-4.12;100.00
29461;BME280;16428;47.836;35.106;2023-02-11T01:52:34;102797.56;;;-3.98;100.00
29461;BME280;16428;47.836;35.106;2023-02-11T01:55:08;102799.09;;;-4.30;100.00
29461;BME280;16428;47.836;35.106;2023-02-11T01:58:01;102800.88;;;-4.32;100.00
29461;BME280;16428;47.836;35.106;2023-02-11T02:00:37;102801.03;;;-4.41;100.00
29461;BME280;16428;47.836;35.106;2023-02-11T02:03:17;102808.25;;;-4.52;100.00
29461;BME280;16428;47.836;35.106;2023-02-11T02:06:17;102807.56;;;-4.60;100.00
29461;BME280;16428;47.836;35.106;2023-02-11T02:09:26;102813.81;;;-4.67;100.00
29461;BME280;16428;47.836;35.106;2023-02-11T02:11:59;102811.25;;;-4.72;100.00
29461;BME280;16428;47.836;35.106;2023-02-11T02:14:29;102806.88;;;-4.71;100.00
29461;BME280;16428;47.836;35.106;2023-02-11T02:16:58;102805.41;;;-4.86;100.00
29461;BME280;16428;47.836;35.106;2023-02-11T02:22:51;102801.16;;;-4.91;100.00
29461;BME280;16428;47.836;35.106;2023-02-11T02:39:58;102804.00;;;-5.05;100.00
29461;BME280;16428;47.836;35.106;2023-02-11T02:42:31;102795.28;;;-5.06;100.00
29461;BME280;16428;47.836;35.106;2023-02-11T02:44:59;102801.41;;;-5.07;100.00
29461;BME280;16428;47.836;35.106;2023-02-11T02:47:29;102801.28;;;-5.01;100.00
29461;BME280;16428;47.836;35.106;2023-02-11T02:50:00;102802.41;;;-5.14;100.00
29461;BME280;16428;47.836;35.106;2023-02-11T02:53:10;102796.06;;;-5.02;100.00
29461;BME280;16428;47.836;35.106;2023-02-11T03:01:33;102787.53;;;-5.12;100.00
29461;BME280;16428;47.836;35.106;2023-02-11T03:07:21;102778.16;;;-5.26;100.00
29461;BME280;16428;47.836;35.106;2023-02-11T03:10:10;102771.13;;;-5.23;100.00
29461;BME280;16428;47.836;35.106;2023-02-11T03:12:44;102770.22;;;-5.20;100.00
29461;BME280;16428;47.836;35.106;2023-02-11T03:15:16;102759.59;;;-5.13;100.00
29461;BME280;16428;47.836;35.106;2023-02-11T03:17:48;102765.75;;;-5.17;100.00
29461;BME280;16428;47.836;35.106;2023-02-11T03:20:23;102781.16;;;-4.99;100.00
29461;BME280;16428;47.836;35.106;2023-02-11T03:23:09;102790.19;;;-5.15;100.00
29461;BME280;16428;47.836;35.106;2023-02-11T03:25:44;102796.28;;;-5.13;100.00
29461;BME280;16428;47.836;35.106;2023-02-11T03:34:07;102791.88;;;-5.11;100.00
29461;BME280;16428;47.836;35.106;2023-02-11T03:39:38;102799.97;;;-5.24;100.00
29461;BME280;16428;47.836;35.106;2023-02-11T03:42:11;102793.56;;;-5.07;100.00
29461;BME280;16428;47.836;35.106;2023-02-11T03:44:58;102793.94;;;-5.31;100.00
29461;BME280;16428;47.836;35.106;2023-02-11T03:47:32;102785.38;;;-5.39;100.00
29461;BME280;16428;47.836;35.106;2023-02-11T03:50:05;102774.00;;;-5.38;100.00
29461;BME280;16428;47.836;35.106;2023-02-11T03:52:37;102778.44;;;-5.43;100.00
29461;BME280;16428;47.836;35.106;2023-02-11T03:55:16;102784.56;;;-5.44;100.00
29461;BME280;16428;47.836;35.106;2023-02-11T03:57:50;102779.22;;;-5.37;100.00
29461;BME280;16428;47.836;35.106;2023-02-11T04:00:19;102787.13;;;-5.41;100.00
29461;BME280;16428;47.836;35.106;2023-02-11T04:02:49;102784.31;;;-5.29;100.00
29461;BME280;16428;47.836;35.106;2023-02-11T04:05:17;102787.88;;;-5.35;100.00
29461;BME280;16428;47.836;35.106;2023-02-11T04:07:46;102784.47;;;-5.38;100.00
29461;BME280;16428;47.836;35.106;2023-02-11T04:10:17;102780.75;;;-5.25;100.00
29461;BME280;16428;47.836;35.106;2023-02-11T04:12:48;102788.72;;;-5.31;100.00
29461;BME280;16428;47.836;35.106;2023-02-11T04:15:17;102780.75;;;-5.23;100.00
29461;BME280;16428;47.836;35.106;2023-02-11T04:17:47;102778.28;;;-5.34;100.00
29461;BME280;16428;47.836;35.106;2023-02-11T04:20:16;102765.31;;;-5.42;100.00
29461;BME280;16428;47.836;35.106;2023-02-11T04:22:46;102769.00;;;-5.53;100.00
29461;BME280;16428;47.836;35.106;2023-02-11T04:25:15;102765.50;;;-5.52;100.00
29461;BME280;16428;47.836;35.106;2023-02-11T04:27:46;102759.25;;;-5.45;100.00
29461;BME280;16428;47.836;35.106;2023-02-11T04:30:14;102762.81;;;-5.49;100.00
29461;BME280;16428;47.836;35.106;2023-02-11T04:32:43;102759.53;;;-5.63;100.00
29461;BME280;16428;47.836;35.106;2023-02-11T04:35:12;102761.09;;;-5.50;100.00
29461;BME280;16428;47.836;35.106;2023-02-11T04:37:41;102762.94;;;-5.55;100.00
29461;BME280;16428;47.836;35.106;2023-02-11T04:40:09;102761.88;;;-5.45;100.00
29461;BME280;16428;47.836;35.106;2023-02-11T04:42:44;102760.13;;;-5.45;100.00
29461;BME280;16428;47.836;35.106;2023-02-11T04:45:14;102759.94;;;-5.34;100.00
29461;BME280;16428;47.836;35.106;2023-02-11T04:47:46;102763.41;;;-5.34;100.00
29461;BME280;16428;47.836;35.106;2023-02-11T04:50:15;102768.34;;;-5.14;100.00
29461;BME280;16428;47.836;35.106;2023-02-11T04:52:44;102760.66;;;-5.23;100.00
29461;BME280;16428;47.836;35.106;2023-02-11T04:55:13;102764.03;;;-5.18;100.00
29461;BME280;16428;47.836;35.106;2023-02-11T04:57:42;102769.41;;;-5.24;100.00
29461;BME280;16428;47.836;35.106;2023-02-11T05:00:11;102764.91;;;-5.19;100.00
29461;BME280;16428;47.836;35.106;2023-02-11T05:02:41;102777.84;;;-5.07;100.00
29461;BME280;16428;47.836;35.106;2023-02-11T05:05:10;102765.88;;;-5.23;100.00
29461;BME280;16428;47.836;35.106;2023-02-11T05:07:41;102769.41;;;-5.24;100.00
29461;BME280;16428;47.836;35.106;2023-02-11T05:10:10;102772.63;;;-5.10;100.00
29461;BME280;16428;47.836;35.106;2023-02-11T05:12:39;102772.59;;;-5.07;100.00
29461;BME280;16428;47.836;35.106;2023-02-11T05:15:08;102772.63;;;-5.10;100.00
29461;BME280;16428;47.836;35.106;2023-02-11T05:17:39;102781.13;;;-4.96;100.00
29461;BME280;16428;47.836;35.106;2023-02-11T05:20:08;102770.59;;;-4.92;100.00
29461;BME280;16428;47.836;35.106;2023-02-11T05:22:39;102768.84;;;-4.93;100.00
29461;BME280;16428;47.836;35.106;2023-02-11T05:25:10;102783.94;;;-5.06;100.00
29461;BME280;16428;47.836;35.106;2023-02-11T05:27:40;102774.38;;;-5.10;100.00
29461;BME280;16428;47.836;35.106;2023-02-11T05:30:11;102772.47;;;-5.02;100.00
29461;BME280;16428;47.836;35.106;2023-02-11T05:32:40;102769.81;;;-4.99;100.00
29461;BME280;16428;47.836;35.106;2023-02-11T05:35:10;102762.63;;;-4.88;100.00
29461;BME280;16428;47.836;35.106;2023-02-11T05:37:39;102757.34;;;-4.86;100.00
29461;BME280;16428;47.836;35.106;2023-02-11T05:40:08;102766.66;;;-4.70;100.00
29461;BME280;16428;47.836;35.106;2023-02-11T05:42:41;102759.81;;;-4.77;100.00
29461;BME280;16428;47.836;35.106;2023-02-11T05:45:11;102766.81;;;-4.78;100.00
29461;BME280;16428;47.836;35.106;2023-02-11T05:47:52;102766.84;;;-4.79;100.00
29461;BME280;16428;47.836;35.106;2023-02-11T05:50:20;102758.03;;;-4.75;100.00
29461;BME280;16428;47.836;35.106;2023-02-11T05:52:49;102762.97;;;-4.60;100.00
29461;BME280;16428;47.836;35.106;2023-02-11T05:55:18;102758.09;;;-4.78;100.00
29461;BME280;16428;47.836;35.106;2023-02-11T05:57:47;102749.69;;;-4.52;100.00
29461;BME280;16428;47.836;35.106;2023-02-11T06:00:19;102745.91;;;-4.39;100.00
29461;BME280;16428;47.836;35.106;2023-02-11T06:02:47;102749.41;;;-4.39;100.00
29461;BME280;16428;47.836;35.106;2023-02-11T06:05:21;102744.94;;;-4.34;100.00
29461;BME280;16428;47.836;35.106;2023-02-11T06:07:50;102760.84;;;-4.43;100.00
29461;BME280;16428;47.836;35.106;2023-02-11T06:10:19;102750.47;;;-4.47;100.00
29461;BME280;16428;47.836;35.106;2023-02-11T06:12:48;102746.13;;;-4.48;100.00
29461;BME280;16428;47.836;35.106;2023-02-11T06:15:20;102748.34;;;-4.29;100.00
29461;BME280;16428;47.836;35.106;2023-02-11T06:17:49;102751.78;;;-4.27;100.00
29461;BME280;16428;47.836;35.106;2023-02-11T06:20:25;102742.13;;;-4.26;100.00
29461;BME280;16428;47.836;35.106;2023-02-11T06:23:01;102748.38;;;-4.30;100.00
29461;BME280;16428;47.836;35.106;2023-02-11T06:25:31;102745.16;;;-4.04;100.00
29461;BME280;16428;47.836;35.106;2023-02-11T06:28:00;102746.19;;;-4.11;100.00
29461;BME280;16428;47.836;35.106;2023-02-11T06:30:29;102739.28;;;-3.77;100.00
29461;BME280;16428;47.836;35.106;2023-02-11T06:33:00;102741.41;;;-3.56;100.00
29461;BME280;16428;47.836;35.106;2023-02-11T06:35:29;102745.53;;;-3.45;100.00
29461;BME280;16428;47.836;35.106;2023-02-11T06:38:00;102748.84;;;-3.37;98.63
29461;BME280;16428;47.836;35.106;2023-02-11T06:40:29;102751.88;;;-3.20;96.58
29461;BME280;16428;47.836;35.106;2023-02-11T06:43:01;102754.50;;;-3.20;95.99
29461;BME280;16428;47.836;35.106;2023-02-11T06:45:31;102748.78;;;-3.02;94.65
29461;BME280;16428;47.836;35.106;2023-02-11T06:48:01;102755.94;;;-3.07;92.84
29461;BME280;16428;47.836;35.106;2023-02-11T06:50:38;102763.72;;;-3.04;93.34
29461;BME280;16428;47.836;35.106;2023-02-11T06:53:07;102757.16;;;-2.88;94.29
29461;BME280;16428;47.836;35.106;2023-02-11T06:55:36;102757.56;;;-2.70;92.66
29461;BME280;16428;47.836;35.106;2023-02-11T06:58:08;102755.81;;;-2.39;89.81
29461;BME280;16428;47.836;35.106;2023-02-11T07:00:38;102754.00;;;-2.37;87.97
29461;BME280;16428;47.836;35.106;2023-02-11T07:03:07;102759.94;;;-2.60;87.92
29461;BME280;16428;47.836;35.106;2023-02-11T07:05:37;102743.84;;;-2.49;87.56
29461;BME280;16428;47.836;35.106;2023-02-11T07:08:06;102742.47;;;-2.03;88.14
29461;BME280;16428;47.836;35.106;2023-02-11T07:10:35;102733.66;;;-1.74;86.56
29461;BME280;16428;47.836;35.106;2023-02-11T07:13:10;102729.25;;;-1.74;84.71
29461;BME280;16428;47.836;35.106;2023-02-11T07:15:44;102727.84;;;-1.84;86.20
29461;BME280;16428;47.836;35.106;2023-02-11T07:18:29;102721.88;;;-1.91;86.72
29461;BME280;16428;47.836;35.106;2023-02-11T07:21:08;102720.41;;;-1.99;87.31
29461;BME280;16428;47.836;35.106;2023-02-11T07:23:40;102715.78;;;-2.21;89.17
29461;BME280;16428;47.836;35.106;2023-02-11T07:26:19;102709.44;;;-1.86;88.84
29461;BME280;16428;47.836;35.106;2023-02-11T07:28:53;102712.50;;;-1.71;87.71
29461;BME280;16428;47.836;35.106;2023-02-11T07:31:24;102704.41;;;-1.67;88.49
29461;BME280;16428;47.836;35.106;2023-02-11T07:33:57;102708.53;;;-1.32;87.72
29461;BME280;16428;47.836;35.106;2023-02-11T07:36:30;102702.09;;;-1.50;87.63
29461;BME280;16428;47.836;35.106;2023-02-11T07:39:01;102693.63;;;-1.33;86.60
29461;BME280;16428;47.836;35.106;2023-02-11T07:41:31;102704.44;;;-1.16;88.04
29461;BME280;16428;47.836;35.106;2023-02-11T07:44:05;102707.63;;;-1.06;89.49
29461;BME280;16428;47.836;35.106;2023-02-11T07:46:36;102703.50;;;-0.65;87.68
29461;BME280;16428;47.836;35.106;2023-02-11T07:49:12;102695.88;;;-0.49;85.89
29461;BME280;16428;47.836;35.106;2023-02-11T07:51:47;102695.56;;;-0.42;84.92
29461;BME280;16428;47.836;35.106;2023-02-11T07:54:40;102695.06;;;-0.51;83.56
29461;BME280;16428;47.836;35.106;2023-02-11T07:57:11;102688.75;;;-0.24;83.94
29461;BME280;16428;47.836;35.106;2023-02-11T07:59:55;102688.84;;;-0.27;83.90
29461;BME280;16428;47.836;35.106;2023-02-11T08:02:44;102690.47;;;-0.23;82.76
29461;BME280;16428;47.836;35.106;2023-02-11T08:05:14;102687.50;;;-0.37;85.76
29461;BME280;16428;47.836;35.106;2023-02-11T08:07:46;102690.47;;;0.21;84.15
29461;BME280;16428;47.836;35.106;2023-02-11T08:10:18;102683.59;;;0.17;81.95
29461;BME280;16428;47.836;35.106;2023-02-11T08:12:51;102683.34;;;0.23;81.35
29461;BME280;16428;47.836;35.106;2023-02-11T08:15:21;102693.84;;;0.66;79.79
29461;BME280;16428;47.836;35.106;2023-02-11T08:17:51;102681.44;;;0.68;78.96
29461;BME280;16428;47.836;35.106;2023-02-11T08:20:23;102687.91;;;0.82;77.07
29461;BME280;16428;47.836;35.106;2023-02-11T08:22:52;102689.22;;;0.92;76.25
29461;BME280;16428;47.836;35.106;2023-02-11T08:25:37;102680.59;;;1.07;75.45
29461;BME280;16428;47.836;35.106;2023-02-11T08:28:39;102684.34;;;1.03;75.38
29461;BME280;16428;47.836;35.106;2023-02-11T08:31:17;102679.50;;;1.52;74.36
29461;BME280;16428;47.836;35.106;2023-02-11T08:33:47;102678.84;;;1.65;73.63
29461;BME280;16428;47.836;35.106;2023-02-11T08:36:22;102677.41;;;1.58;73.02
29461;BME280;16428;47.836;35.106;2023-02-11T08:38:55;102672.38;;;1.90;72.35
29461;BME280;16428;47.836;35.106;2023-02-11T08:41:52;102667.78;;;2.12;70.52
29461;BME280;16428;47.836;35.106;2023-02-11T08:44:25;102670.34;;;2.31;69.50
29461;BME280;16428;47.836;35.106;2023-02-11T08:46:54;102657.66;;;2.55;69.06
29461;BME280;16428;47.836;35.106;2023-02-11T08:49:40;102657.91;;;2.50;69.43
29461;BME280;16428;47.836;35.106;2023-02-11T08:52:10;102657.44;;;2.42;68.75
29461;BME280;16428;47.836;35.106;2023-02-11T08:54:42;102648.50;;;2.77;67.82
29461;BME280;16428;47.836;35.106;2023-02-11T08:57:22;102650.06;;;2.81;67.20
29461;BME280;16428;47.836;35.106;2023-02-11T08:59:52;102641.38;;;2.95;64.66
29461;BME280;16428;47.836;35.106;2023-02-11T09:02:31;102647.84;;;2.74;64.41
29461;BME280;16428;47.836;35.106;2023-02-11T09:05:02;102636.75;;;3.16;64.54
29461;BME280;16428;47.836;35.106;2023-02-11T09:07:37;102634.31;;;2.61;64.79
29461;BME280;16428;47.836;35.106;2023-02-11T09:10:09;102633.41;;;2.28;66.63
29461;BME280;16428;47.836;35.106;2023-02-11T09:12:44;102620.25;;;2.76;66.12
29461;BME280;16428;47.836;35.106;2023-02-11T09:15:16;102624.03;;;2.55;64.43
29461;BME280;16428;47.836;35.106;2023-02-11T09:17:47;102625.69;;;3.24;64.82
29461;BME280;16428;47.836;35.106;2023-02-11T09:20:16;102619.53;;;3.23;63.82
29461;BME280;16428;47.836;35.106;2023-02-11T09:22:48;102617.41;;;2.97;63.94
29461;BME280;16428;47.836;35.106;2023-02-11T09:25:18;102621.94;;;2.95;63.63
29461;BME280;16428;47.836;35.106;2023-02-11T09:27:48;102624.75;;;2.59;64.54
29461;BME280;16428;47.836;35.106;2023-02-11T09:30:19;102613.88;;;2.63;65.66
29461;BME280;16428;47.836;35.106;2023-02-11T09:32:49;102607.75;;;2.28;66.05
29461;BME280;16428;47.836;35.106;2023-02-11T09:35:18;102604.97;;;2.47;65.97
29461;BME280;16428;47.836;35.106;2023-02-11T09:37:51;102602.53;;;2.44;67.27
29461;BME280;16428;47.836;35.106;2023-02-11T09:40:25;102599.22;;;2.56;66.46
29461;BME280;16428;47.836;35.106;2023-02-11T09:43:18;102597.97;;;2.46;66.79
29461;BME280;16428;47.836;35.106;2023-02-11T09:45:54;102584.03;;;2.75;66.29
29461;BME280;16428;47.836;35.106;2023-02-11T09:48:33;102586.88;;;2.72;66.83
29461;BME280;16428;47.836;35.106;2023-02-11T09:54:36;102578.25;;;2.85;66.95
29461;BME280;16428;47.836;35.106;2023-02-11T09:57:09;102568.44;;;3.02;66.52
29461;BME280;16428;47.836;35.106;2023-02-11T09:59:55;102573.59;;;3.84;65.92
29461;BME280;16428;47.836;35.106;2023-02-11T10:08:10;102554.25;;;4.70;61.31
29461;BME280;16428;47.836;35.106;2023-02-11T10:11:10;102554.41;;;5.24;59.31
29461;BME280;16428;47.836;35.106;2023-02-11T10:20:19;102557.19;;;5.08;57.69
29461;BME280;16428;47.836;35.106;2023-02-11T10:23:18;102554.81;;;4.89;56.18
29461;BME280;16428;47.836;35.106;2023-02-11T10:25:51;102543.59;;;4.70;56.71
29461;BME280;16428;47.836;35.106;2023-02-11T10:28:33;102547.28;;;4.53;56.97
29461;BME280;16428;47.836;35.106;2023-02-11T10:31:12;102537.66;;;4.37;56.88
29461;BME280;16428;47.836;35.106;2023-02-11T10:33:56;102535.03;;;4.07;58.63
29461;BME280;16428;47.836;35.106;2023-02-11T10:36:29;102537.06;;;3.87;59.96
29461;BME280;16428;47.836;35.106;2023-02-11T10:41:48;102520.53;;;3.67;61.17
29461;BME280;16428;47.836;35.106;2023-02-11T10:45:05;102520.97;;;3.75;60.76
29461;BME280;16428;47.836;35.106;2023-02-11T10:47:37;102517.69;;;3.70;61.25
29461;BME280;16428;47.836;35.106;2023-02-11T10:50:25;102517.94;;;3.51;62.72
29461;BME280;16428;47.836;35.106;2023-02-11T10:53:18;102506.84;;;3.88;62.10
29461;BME280;16428;47.836;35.106;2023-02-11T10:55:55;102493.59;;;3.73;62.61
29461;BME280;16428;47.836;35.106;2023-02-11T10:58:46;102490.84;;;4.04;61.60
29461;BME280;16428;47.836;35.106;2023-02-11T11:01:21;102488.41;;;4.30;61.57
29461;BME280;16428;47.836;35.106;2023-02-11T11:04:05;102483.78;;;4.47;60.53
29461;BME280;16428;47.836;35.106;2023-02-11T11:06:34;102482.59;;;5.35;57.90
29461;BME280;16428;47.836;35.106;2023-02-11T11:09:03;102469.25;;;4.67;58.93
29461;BME280;16428;47.836;35.106;2023-02-11T11:11:50;102461.44;;;4.50;60.63
29461;BME280;16428;47.836;35.106;2023-02-11T11:14:24;102458.97;;;4.61;61.57
29461;BME280;16428;47.836;35.106;2023-02-11T11:16:57;102463.41;;;4.89;60.40
29461;BME280;16428;47.836;35.106;2023-02-11T11:19:28;102455.28;;;4.49;61.43
29461;BME280;16428;47.836;35.106;2023-02-11T11:22:03;102446.72;;;4.30;62.28
29461;BME280;16428;47.836;35.106;2023-02-11T11:24:43;102445.84;;;4.44;60.99
29461;BME280;16428;47.836;35.106;2023-02-11T11:27:23;102439.91;;;4.40;61.74
29461;BME280;16428;47.836;35.106;2023-02-11T11:29:54;102434.56;;;4.40;62.51
29461;BME280;16428;47.836;35.106;2023-02-11T11:32:30;102439.78;;;4.56;62.23
29461;BME280;16428;47.836;35.106;2023-02-11T11:35:06;102426.41;;;4.57;61.89
29461;BME280;16428;47.836;35.106;2023-02-11T11:37:38;102422.59;;;4.33;62.79
29461;BME280;16428;47.836;35.106;2023-02-11T11:40:25;102422.22;;;4.39;63.00
29461;BME280;16428;47.836;35.106;2023-02-11T11:45:54;102418.50;;;4.42;61.04
29461;BME280;16428;47.836;35.106;2023-02-11T11:48:48;102408.69;;;4.00;63.76
29461;BME280;16428;47.836;35.106;2023-02-11T11:51:31;102405.19;;;4.56;62.55
29461;BME280;16428;47.836;35.106;2023-02-11T11:54:06;102412.72;;;4.90;61.90
29461;BME280;16428;47.836;35.106;2023-02-11T11:57:14;102410.59;;;4.54;63.32
29461;BME280;16428;47.836;35.106;2023-02-11T11:59:56;102414.66;;;4.74;63.41
29461;BME280;16428;47.836;35.106;2023-02-11T12:03:08;102410.09;;;4.62;63.04
29461;BME280;16428;47.836;35.106;2023-02-11T12:12:15;102404.72;;;4.35;65.41
29461;BME280;16428;47.836;35.106;2023-02-11T12:15:34;102397.97;;;4.30;64.92
29461;BME280;16428;47.836;35.106;2023-02-11T12:50:17;102372.88;;;4.34;63.48
29461;BME280;16428;47.836;35.106;2023-02-11T13:00:15;102373.25;;;4.13;64.67
29461;BME280;16428;47.836;35.106;2023-02-11T13:03:25;102371.69;;;4.25;64.61
29461;BME280;16428;47.836;35.106;2023-02-11T13:07:01;102371.38;;;4.01;66.10
29461;BME280;16428;47.836;35.106;2023-02-11T13:10:22;102371.19;;;4.04;65.62
29461;BME280;16428;47.836;35.106;2023-02-11T13:13:37;102358.84;;;3.89;65.88
29461;BME280;16428;47.836;35.106;2023-02-11T13:16:43;102368.88;;;3.70;66.30
29461;BME280;16428;47.836;35.106;2023-02-11T13:30:31;102349.69;;;3.65;66.60
29461;BME280;16428;47.836;35.106;2023-02-11T13:33:57;102344.75;;;3.59;67.91
29461;BME280;16428;47.836;35.106;2023-02-11T13:36:55;102332.97;;;3.48;69.00
29461;BME280;16428;47.836;35.106;2023-02-11T13:40:02;102331.84;;;3.23;70.67
29461;BME280;16428;47.836;35.106;2023-02-11T13:43:21;102327.38;;;3.23;71.99
29461;BME280;16428;47.836;35.106;2023-02-11T13:46:09;102318.38;;;2.96;72.28
29461;BME280;16428;47.836;35.106;2023-02-11T13:49:18;102321.84;;;3.12;71.22
29461;BME280;16428;47.836;35.106;2023-02-11T13:52:14;102314.44;;;3.03;71.39
29461;BME280;16428;47.836;35.106;2023-02-11T13:54:56;102325.41;;;2.97;71.68
29461;BME280;16428;47.836;35.106;2023-02-11T14:01:03;102304.69;;;3.03;72.87
29461;BME280;16428;47.836;35.106;2023-02-11T14:04:17;102312.50;;;3.21;72.25
29461;BME280;16428;47.836;35.106;2023-02-11T14:07:31;102307.09;;;3.36;72.33
29461;BME280;16428;47.836;35.106;2023-02-11T14:19:44;102288.22;;;2.97;75.79
29461;BME280;16428;47.836;35.106;2023-02-11T14:22:47;102286.34;;;2.99;76.21
29461;BME280;16428;47.836;35.106;2023-02-11T14:25:30;102281.94;;;2.83;76.90
29461;BME280;16428;47.836;35.106;2023-02-11T14:28:24;102275.72;;;2.99;77.66
29461;BME280;16428;47.836;35.106;2023-02-11T14:31:37;102268.66;;;3.13;77.06
29461;BME280;16428;47.836;35.106;2023-02-11T14:35:11;102264.94;;;3.02;77.40
29461;BME280;16428;47.836;35.106;2023-02-11T14:41:43;102261.38;;;2.87;78.54
29461;BME280;16428;47.836;35.106;2023-02-11T14:44:29;102266.78;;;2.86;77.31
29461;BME280;16428;47.836;35.106;2023-02-11T14:47:44;102266.00;;;2.83;78.42
29461;BME280;16428;47.836;35.106;2023-02-11T14:51:12;102259.16;;;2.79;78.85
29461;BME280;16428;47.836;35.106;2023-02-11T14:54:13;102264.47;;;2.79;79.39
29461;BME280;16428;47.836;35.106;2023-02-11T14:57:15;102265.41;;;2.78;79.52
29461;BME280;16428;47.836;35.106;2023-02-11T14:59:58;102255.56;;;2.80;79.33
29461;BME280;16428;47.836;35.106;2023-02-11T15:02:36;102252.53;;;2.72;79.76
29461;BME280;16428;47.836;35.106;2023-02-11T15:05:24;102261.06;;;2.62;81.06
29461;BME280;16428;47.836;35.106;2023-02-11T15:08:01;102256.28;;;2.68;80.78
29461;BME280;16428;47.836;35.106;2023-02-11T15:10:36;102259.03;;;2.51;82.03
29461;BME280;16428;47.836;35.106;2023-02-11T15:13:25;102258.63;;;2.59;82.09
29461;BME280;16428;47.836;35.106;2023-02-11T15:16:15;102262.63;;;2.50;82.27
29461;BME280;16428;47.836;35.106;2023-02-11T15:18:55;102252.13;;;2.48;82.32
29461;BME280;16428;47.836;35.106;2023-02-11T15:21:34;102249.31;;;2.36;82.79
29461;BME280;16428;47.836;35.106;2023-02-11T15:24:41;102241.59;;;2.47;83.02
29461;BME280;16428;47.836;35.106;2023-02-11T15:27:14;102248.09;;;2.57;82.47
29461;BME280;16428;47.836;35.106;2023-02-11T15:29:47;102246.31;;;2.42;83.49
29461;BME280;16428;47.836;35.106;2023-02-11T15:32:24;102246.47;;;2.39;83.83
29461;BME280;16428;47.836;35.106;2023-02-11T15:35:12;102244.16;;;2.33;84.60
29461;BME280;16428;47.836;35.106;2023-02-11T15:37:44;102232.91;;;2.14;85.76
29461;BME280;16428;47.836;35.106;2023-02-11T15:40:23;102235.28;;;2.34;84.79
29461;BME280;16428;47.836;35.106;2023-02-11T15:51:22;102246.16;;;2.14;85.51
29461;BME280;16428;47.836;35.106;2023-02-11T15:53:57;102233.41;;;2.04;86.12